Highgate, VT

5:21 AM EST on December 14, 2019 (GMT -0500)
Franklin County State

Weather History for KFSO - November, 2019

Change the Weather History Date:

Friday, November 15, 2019

  Actual Average (WUND) Record (WUND)
Temperature  
Mean Temperature 32 °F -  
Max Temperature 41 °F - - (-1)
Min Temperature 23 °F - - (-1)
Degree Days  
Heating Degree Days 33    
Moisture  
Dew Point 24 °F    
Average Humidity 64    
Maximum Humidity 87    
Minimum Humidity 49    
Precipitation  
Precipitation 0.00 in - - ()
Sea Level Pressure  
Sea Level Pressure 30.09 in    
Wind  
Wind Speed 9 mph (WSW)    
Max Wind Speed 13 mph    
Max Gust Speed 24 mph    
Visibility 10 miles    
Events Snow    
Averages and records for this station are not official NWS values.
T = Trace of Precipitation, MM = Missing Value Source: NWS Daily Summary

Daily Weather History Graph

Daily Weather History Graph

Search for Another Location

Airport or City:

Astronomy

Nov. 15, 2019 Rise Set
Actual Time 6:49 AM EST 4:23 PM EST
Civil Twilight 6:17 AM EST 4:55 PM EST
Nautical Twilight 5:42 AM EST 5:31 PM EST
Astronomical Twilight 5:07 AM EST 6:05 PM EST
Moon 6:52 PM EST (11/15) 9:47 AM EST (11/15)
Length of Visible Light 10h 37m
Length of Day
9h 34m
Waning Gibbous, 90% of the Moon is Illuminated
Nov 15
Waning Gibbous
Nov 19
Last Quarter
Nov 26
New
Dec 4
First Quarter
Dec 12
Full

Hourly Weather History & Observations

Time (EST) Temp. Windchill Dew Point Humidity Pressure Visibility Wind Dir Wind Speed Gust Speed Precip Events Conditions
12:15 AM 35.1 °F 27.4 °F 21.7 °F 58% 30.13 in 10.0 mi South 10.4 mph 17.3 mph N/A   Mostly Cloudy
12:35 AM 35.1 °F 27.9 °F 21.7 °F 58% 30.11 in 10.0 mi South 9.2 mph - N/A   Mostly Cloudy
12:56 AM 35.1 °F 27.4 °F 21.7 °F 58% 30.11 in 10.0 mi South 10.4 mph - N/A   Mostly Cloudy
1:15 AM 35.1 °F 27.9 °F 21.7 °F 58% 30.10 in 10.0 mi South 9.2 mph - N/A   Mostly Cloudy
1:36 AM 35.2 °F 31.2 °F 21.6 °F 58% 30.10 in 10.0 mi South 4.6 mph - N/A   Mostly Cloudy
1:55 AM 35.1 °F 27.9 °F 22.1 °F 59% 30.10 in 10.0 mi South 9.2 mph - N/A   Mostly Cloudy
2:16 AM 35.4 °F 28.4 °F 21.7 °F 58% 30.09 in 10.0 mi South 9.2 mph - N/A   Scattered Clouds
2:36 AM 35.6 °F 29.9 °F 22.1 °F 58% 30.08 in 10.0 mi South 6.9 mph - N/A   Mostly Cloudy
2:55 AM 35.6 °F 28.0 °F 22.1 °F 58% 30.08 in 10.0 mi South 10.4 mph - N/A   Mostly Cloudy
3:16 AM 35.6 °F 29.2 °F 22.6 °F 59% 30.06 in 10.0 mi South 8.1 mph - N/A   Mostly Cloudy
3:35 AM 35.6 °F 30.7 °F 22.3 °F 58% 30.06 in 10.0 mi South 5.8 mph 16.1 mph N/A   Mostly Cloudy
3:56 AM 35.8 °F 28.8 °F 22.5 °F 58% 30.06 in 10.0 mi South 9.2 mph - N/A   Mostly Cloudy
4:35 AM 35.8 °F 30.1 °F 22.8 °F 59% 30.04 in 10.0 mi South 6.9 mph 17.3 mph N/A   Mostly Cloudy
4:56 AM 35.8 °F 28.8 °F 22.8 °F 59% 30.03 in 10.0 mi South 9.2 mph - N/A   Mostly Cloudy
5:15 AM 36.0 °F 29.0 °F 23.0 °F 59% 30.03 in 10.0 mi South 9.2 mph - N/A   Mostly Cloudy
5:36 AM 36.5 °F 29.2 °F 23.0 °F 58% 30.02 in 10.0 mi South 10.4 mph 16.1 mph N/A   Mostly Cloudy
5:56 AM 36.7 °F 28.4 °F 22.8 °F 57% 30.02 in 10.0 mi South 12.7 mph 20.7 mph N/A   Mostly Cloudy
6:15 AM 36.7 °F 28.9 °F 23.0 °F 58% 30.02 in 10.0 mi South 11.5 mph 17.3 mph N/A   Mostly Cloudy
6:36 AM 37.0 °F 30.4 °F 23.7 °F 59% 30.02 in 10.0 mi South 9.2 mph - N/A   Mostly Cloudy
6:56 AM 37.4 °F 31.4 °F 24.3 °F 59% 30.02 in 10.0 mi SSW 8.1 mph - N/A   Mostly Cloudy
7:15 AM 37.4 °F 32.8 °F 24.8 °F 60% 30.02 in 10.0 mi SSW 5.8 mph - N/A   Mostly Cloudy
7:36 AM 37.8 °F 33.3 °F 25.9 °F 62% 30.02 in 10.0 mi SSW 5.8 mph - N/A   Mostly Cloudy
7:55 AM 38.5 °F - 27.7 °F 65% 30.03 in 10.0 mi Calm Calm - N/A   Mostly Cloudy
8:15 AM 36.5 °F 33.9 °F 28.8 °F 74% 30.03 in 10.0 mi WNW 3.5 mph - N/A   Scattered Clouds
8:35 AM 36.1 °F 32.3 °F 29.7 °F 77% 30.03 in 10.0 mi West 4.6 mph - N/A   Mostly Cloudy
8:56 AM 36.7 °F 32.9 °F 30.0 °F 77% 30.03 in 7.0 mi West 4.6 mph - N/A   Mostly Cloudy
9:36 AM 37.8 °F 31.8 °F 30.0 °F 74% 30.03 in 10.0 mi WSW 8.1 mph - N/A   Mostly Cloudy
9:55 AM 38.3 °F 31.4 °F 29.3 °F 70% 30.02 in 10.0 mi WSW 10.4 mph 19.6 mph N/A   Mostly Cloudy
10:16 AM 39.2 °F 32.5 °F 29.7 °F 69% 30.02 in 10.0 mi SW 10.4 mph 16.1 mph N/A   Scattered Clouds
10:35 AM 39.6 °F 34.7 °F 30.0 °F 69% 30.02 in 10.0 mi SW 6.9 mph 19.6 mph N/A   Scattered Clouds
10:56 AM 39.2 °F 33.0 °F 31.1 °F 73% 30.01 in 10.0 mi SSW 9.2 mph - N/A   Scattered Clouds
11:16 AM 39.6 °F 34.0 °F 31.1 °F 72% 30.00 in 10.0 mi SSW 8.1 mph 18.4 mph N/A   Scattered Clouds
11:36 AM 39.2 °F 33.0 °F 32.0 °F 75% 29.99 in 10.0 mi SSW 9.2 mph 17.3 mph N/A   Mostly Cloudy
11:56 AM 40.1 °F 34.7 °F 31.3 °F 71% 29.99 in 10.0 mi SW 8.1 mph 17.3 mph N/A   Mostly Cloudy
12:15 PM 40.1 °F 33.2 °F 30.7 °F 69% 29.98 in 10.0 mi SW 11.5 mph 18.4 mph N/A   Mostly Cloudy
12:36 PM 40.6 °F 34.8 °F 30.2 °F 66% 29.98 in 10.0 mi SSW 9.2 mph 18.4 mph N/A   Mostly Cloudy
1:15 PM 41.2 °F 34.5 °F 30.4 °F 65% 29.97 in 10.0 mi SW 11.5 mph 18.4 mph N/A   Mostly Cloudy
1:36 PM 41.0 °F 34.3 °F 30.2 °F 65% 29.97 in 10.0 mi SW 11.5 mph 20.7 mph N/A   Mostly Cloudy
1:56 PM 41.0 °F 34.7 °F 30.4 °F 66% 29.97 in 10.0 mi SW 10.4 mph 17.3 mph N/A   Mostly Cloudy
2:15 PM 41.0 °F 34.3 °F 30.7 °F 67% 29.97 in 10.0 mi SW 11.5 mph 20.7 mph N/A   Mostly Cloudy
2:35 PM 40.5 °F 34.1 °F 31.1 °F 69% 29.98 in 10.0 mi WSW 10.4 mph 19.6 mph N/A   Mostly Cloudy
2:56 PM 40.1 °F 34.1 °F 31.8 °F 72% 30.00 in 10.0 mi WSW 9.2 mph 18.4 mph N/A   Mostly Cloudy
3:15 PM 39.7 °F 35.6 °F 31.8 °F 73% 30.00 in 10.0 mi SW 5.8 mph - N/A   Mostly Cloudy
3:35 PM 40.1 °F 34.7 °F 31.1 °F 70% 30.00 in 10.0 mi WSW 8.1 mph - N/A   Mostly Cloudy
3:55 PM 40.1 °F 36.1 °F 30.6 °F 69% 30.00 in 10.0 mi WSW 5.8 mph - N/A   Mostly Cloudy
4:16 PM 40.3 °F 34.4 °F 29.1 °F 64% 30.01 in 10.0 mi West 9.2 mph 24.2 mph N/A   Scattered Clouds
4:36 PM 38.3 °F 31.4 °F 30.0 °F 72% 30.05 in 7.0 mi WNW 10.4 mph 24.2 mph N/A   Unknown
4:56 PM 32.9 °F 26.7 °F 29.3 °F 87% 30.07 in 7.0 mi WNW 6.9 mph 18.4 mph N/A Snow Light Snow
5:16 PM 33.1 °F 25.5 °F 26.4 °F 77% 30.09 in 10.0 mi WNW 9.2 mph 18.4 mph N/A   Mostly Cloudy
5:36 PM 33.3 °F 25.7 °F 26.6 °F 77% 30.11 in 10.0 mi WNW 9.2 mph - N/A Snow Light Snow
5:55 PM 33.3 °F 26.4 °F 26.4 °F 76% 30.13 in 7.0 mi West 8.1 mph 17.3 mph N/A Snow Light Snow
6:15 PM 32.9 °F 27.5 °F 27.5 °F 81% 30.14 in 5.0 mi West 5.8 mph - N/A Snow Light Snow
6:35 PM 32.9 °F 27.5 °F 25.9 °F 75% 30.15 in 10.0 mi West 5.8 mph - N/A   Scattered Clouds
6:56 PM 33.1 °F 26.9 °F 24.8 °F 72% 30.16 in 10.0 mi WNW 6.9 mph - N/A   Scattered Clouds
7:16 PM 33.3 °F 25.7 °F 22.5 °F 65% 30.18 in 10.0 mi NNW 9.2 mph - N/A   Mostly Cloudy
7:35 PM 32.0 °F 24.2 °F 21.2 °F 64% 30.19 in 10.0 mi NW 9.2 mph - N/A   Scattered Clouds
7:56 PM 31.8 °F 22.8 °F 18.3 °F 57% 30.20 in 10.0 mi WNW 11.5 mph 19.6 mph N/A   Mostly Cloudy
8:15 PM 31.1 °F 23.1 °F 18.1 °F 59% 30.22 in 10.0 mi NW 9.2 mph 19.6 mph N/A   Mostly Cloudy
8:35 PM 30.2 °F 21.9 °F 16.0 °F 56% 30.23 in 10.0 mi NNW 9.2 mph 19.6 mph N/A   Scattered Clouds
9:16 PM 28.4 °F 23.3 °F 11.3 °F 49% 30.28 in 10.0 mi NW 4.6 mph 17.3 mph N/A   Clear
9:35 PM 27.5 °F 19.3 °F 12.0 °F 52% 30.29 in 10.0 mi NW 8.1 mph - N/A   Clear
10:15 PM 25.7 °F 18.0 °F 11.5 °F 55% 30.32 in 10.0 mi NW 6.9 mph 16.1 mph N/A   Unknown
10:35 PM 25.2 °F 16.5 °F 10.8 °F 54% 30.34 in 10.0 mi NW 8.1 mph - N/A   Unknown
10:56 PM 24.8 °F 16.9 °F 8.8 °F 51% 30.36 in 10.0 mi NNW 6.9 mph 17.3 mph N/A   Unknown
11:15 PM 24.3 °F 15.4 °F 9.0 °F 52% 30.38 in 10.0 mi NNW 8.1 mph 24.2 mph N/A   Unknown
11:35 PM 23.5 °F 15.4 °F 10.2 °F 57% 30.40 in 10.0 mi NNW 6.9 mph - N/A   Unknown
11:55 PM 23.0 °F 14.7 °F 10.4 °F 59% 30.40 in 10.0 mi NNW 6.9 mph 16.1 mph N/A   Unknown